sensor_id;sensor_type;location;lat;lon;timestamp;pressure;altitude;pressure_sealevel;temperature;humidity
58658;BME280;44428;45.630;13.786;2022-09-13T00:00:58;101278.41;;;17.48;59.46
58658;BME280;44428;45.630;13.786;2022-09-13T00:03:24;101286.84;;;17.44;59.73
58658;BME280;44428;45.630;13.786;2022-09-13T00:05:50;101291.47;;;17.42;59.94
58658;BME280;44428;45.630;13.786;2022-09-13T00:08:18;101286.03;;;17.43;60.21
58658;BME280;44428;45.630;13.786;2022-09-13T00:10:44;101286.84;;;17.44;59.97
58658;BME280;44428;45.630;13.786;2022-09-13T00:13:12;101292.75;;;17.47;59.32
58658;BME280;44428;45.630;13.786;2022-09-13T00:15:46;101292.75;;;17.47;59.75
58658;BME280;44428;45.630;13.786;2022-09-13T00:18:13;101295.56;;;17.46;60.30
58658;BME280;44428;45.630;13.786;2022-09-13T00:20:39;101285.88;;;17.45;60.63
58658;BME280;44428;45.630;13.786;2022-09-13T00:23:05;101295.56;;;17.46;60.62
58658;BME280;44428;45.630;13.786;2022-09-13T00:25:30;101306.78;;;17.39;61.04
58658;BME280;44428;45.630;13.786;2022-09-13T00:27:56;101310.72;;;17.35;61.13
58658;BME280;44428;45.630;13.786;2022-09-13T00:30:22;101299.75;;;17.29;61.70
58658;BME280;44428;45.630;13.786;2022-09-13T00:32:47;101306.22;;;17.26;62.25
58658;BME280;44428;45.630;13.786;2022-09-13T00:35:13;101301.16;;;17.23;62.72
58658;BME280;44428;45.630;13.786;2022-09-13T00:37:39;101307.91;;;17.27;62.63
58658;BME280;44428;45.630;13.786;2022-09-13T00:40:05;101308.22;;;17.44;60.62
58658;BME280;44428;45.630;13.786;2022-09-13T00:42:32;101311.31;;;17.49;60.83
58658;BME280;44428;45.630;13.786;2022-09-13T00:45:13;101318.38;;;17.50;60.84
58658;BME280;44428;45.630;13.786;2022-09-13T00:55:42;101302.81;;;17.24;62.41
58658;BME280;44428;45.630;13.786;2022-09-13T00:58:16;101303.28;;;17.29;61.78
58658;BME280;44428;45.630;13.786;2022-09-13T01:00:43;101309.06;;;17.34;61.48
58658;BME280;44428;45.630;13.786;2022-09-13T01:03:12;101296.94;;;17.30;61.35
58658;BME280;44428;45.630;13.786;2022-09-13T01:05:52;101298.66;;;17.31;61.66
58658;BME280;44428;45.630;13.786;2022-09-13T01:08:20;101287.97;;;17.31;61.43
58658;BME280;44428;45.630;13.786;2022-09-13T01:10:50;101286.56;;;17.37;61.24
58658;BME280;44428;45.630;13.786;2022-09-13T01:13:21;101280.09;;;17.39;61.01
58658;BME280;44428;45.630;13.786;2022-09-13T01:15:48;101282.06;;;17.37;60.87
58658;BME280;44428;45.630;13.786;2022-09-13T01:18:14;101268.00;;;17.35;61.36
58658;BME280;44428;45.630;13.786;2022-09-13T01:37:32;101284.88;;;17.36;62.82
58658;BME280;44428;45.630;13.786;2022-09-13T01:40:13;101287.41;;;17.37;63.00
58658;BME280;44428;45.630;13.786;2022-09-13T01:43:34;101277.84;;;17.35;63.04
58658;BME280;44428;45.630;13.786;2022-09-13T01:48:19;101269.38;;;17.30;62.93
58658;BME280;44428;45.630;13.786;2022-09-13T01:54:10;101256.75;;;17.22;61.35
58658;BME280;44428;45.630;13.786;2022-09-13T01:59:20;101264.03;;;17.20;61.47
58658;BME280;44428;45.630;13.786;2022-09-13T02:01:58;101259.81;;;17.17;61.44
58658;BME280;44428;45.630;13.786;2022-09-13T02:04:32;101255.84;;;17.12;61.57
58658;BME280;44428;45.630;13.786;2022-09-13T02:07:09;101239.84;;;17.12;62.06
58658;BME280;44428;45.630;13.786;2022-09-13T02:09:42;101246.28;;;17.09;62.14
58658;BME280;44428;45.630;13.786;2022-09-13T02:12:18;101229.69;;;17.06;62.24
58658;BME280;44428;45.630;13.786;2022-09-13T02:14:50;101231.97;;;17.01;62.29
58658;BME280;44428;45.630;13.786;2022-09-13T02:17:20;101229.28;;;17.01;62.48
58658;BME280;44428;45.630;13.786;2022-09-13T02:22:22;101240.94;;;17.00;62.91
58658;BME280;44428;45.630;13.786;2022-09-13T02:24:54;101238.53;;;16.97;63.20
58658;BME280;44428;45.630;13.786;2022-09-13T02:27:25;101237.84;;;16.94;63.17
58658;BME280;44428;45.630;13.786;2022-09-13T02:29:58;101238.81;;;16.93;63.26
58658;BME280;44428;45.630;13.786;2022-09-13T02:32:55;101236.41;;;16.90;63.67
58658;BME280;44428;45.630;13.786;2022-09-13T02:35:26;101240.91;;;16.90;63.63
58658;BME280;44428;45.630;13.786;2022-09-13T02:38:13;101239.06;;;16.90;63.35
58658;BME280;44428;45.630;13.786;2022-09-13T02:40:50;101234.28;;;16.84;63.47
58658;BME280;44428;45.630;13.786;2022-09-13T02:43:31;101246.22;;;16.80;63.32
58658;BME280;44428;45.630;13.786;2022-09-13T02:46:19;101247.19;;;16.79;63.65
58658;BME280;44428;45.630;13.786;2022-09-13T02:54:08;101258.84;;;16.78;64.20
58658;BME280;44428;45.630;13.786;2022-09-13T02:57:03;101253.75;;;16.75;64.13
58658;BME280;44428;45.630;13.786;2022-09-13T02:59:30;101243.56;;;16.80;64.80
58658;BME280;44428;45.630;13.786;2022-09-13T03:02:06;101248.41;;;16.75;64.78
58658;BME280;44428;45.630;13.786;2022-09-13T03:04:34;101235.34;;;16.72;64.77
58658;BME280;44428;45.630;13.786;2022-09-13T03:07:00;101238.28;;;16.69;64.79
58658;BME280;44428;45.630;13.786;2022-09-13T03:09:29;101236.88;;;16.65;65.17
58658;BME280;44428;45.630;13.786;2022-09-13T03:15:00;101245.56;;;16.67;65.10
58658;BME280;44428;45.630;13.786;2022-09-13T03:26:40;101247.81;;;16.62;65.71
58658;BME280;44428;45.630;13.786;2022-09-13T03:37:07;101247.22;;;16.58;66.00
58658;BME280;44428;45.630;13.786;2022-09-13T03:39:41;101241.03;;;16.58;65.58
58658;BME280;44428;45.630;13.786;2022-09-13T03:42:36;101233.47;;;16.63;65.32
58658;BME280;44428;45.630;13.786;2022-09-13T03:45:05;101233.75;;;16.60;65.75
58658;BME280;44428;45.630;13.786;2022-09-13T03:47:35;101229.13;;;16.62;65.92
58658;BME280;44428;45.630;13.786;2022-09-13T03:50:04;101225.88;;;16.58;65.82
58658;BME280;44428;45.630;13.786;2022-09-13T03:52:32;101224.47;;;16.64;65.88
58658;BME280;44428;45.630;13.786;2022-09-13T03:54:58;101227.56;;;16.59;66.20
58658;BME280;44428;45.630;13.786;2022-09-13T03:57:23;101221.13;;;16.62;66.67
58658;BME280;44428;45.630;13.786;2022-09-13T03:59:51;101214.53;;;16.66;66.61
58658;BME280;44428;45.630;13.786;2022-09-13T04:02:19;101213.13;;;16.62;66.83
58658;BME280;44428;45.630;13.786;2022-09-13T04:04:45;101208.75;;;16.61;66.77
58658;BME280;44428;45.630;13.786;2022-09-13T04:07:14;101216.91;;;16.59;66.98
58658;BME280;44428;45.630;13.786;2022-09-13T04:09:40;101216.19;;;16.57;67.44
58658;BME280;44428;45.630;13.786;2022-09-13T04:12:06;101225.88;;;16.58;67.65
58658;BME280;44428;45.630;13.786;2022-09-13T04:14:34;101221.66;;;16.56;68.22
58658;BME280;44428;45.630;13.786;2022-09-13T04:17:00;101228.50;;;16.48;68.33
58658;BME280;44428;45.630;13.786;2022-09-13T04:19:27;101215.75;;;16.52;68.34
58658;BME280;44428;45.630;13.786;2022-09-13T04:21:53;101220.38;;;16.50;68.71
58658;BME280;44428;45.630;13.786;2022-09-13T04:24:23;101218.53;;;16.51;68.80
58658;BME280;44428;45.630;13.786;2022-09-13T04:26:50;101211.53;;;16.49;68.76
58658;BME280;44428;45.630;13.786;2022-09-13T04:29:16;101204.81;;;16.55;68.60
58658;BME280;44428;45.630;13.786;2022-09-13T04:31:45;101207.88;;;16.51;68.73
58658;BME280;44428;45.630;13.786;2022-09-13T04:34:12;101214.88;;;16.52;69.11
58658;BME280;44428;45.630;13.786;2022-09-13T04:36:38;101219.13;;;16.54;69.11
58658;BME280;44428;45.630;13.786;2022-09-13T04:39:04;101221.09;;;16.52;69.44
58658;BME280;44428;45.630;13.786;2022-09-13T04:41:30;101219.94;;;16.55;69.84
58658;BME280;44428;45.630;13.786;2022-09-13T04:43:58;101225.56;;;16.52;70.13
58658;BME280;44428;45.630;13.786;2022-09-13T04:46:23;101236.50;;;16.48;70.41
58658;BME280;44428;45.630;13.786;2022-09-13T04:48:50;101231.16;;;16.48;70.80
58658;BME280;44428;45.630;13.786;2022-09-13T04:51:15;101234.53;;;16.51;71.28
58658;BME280;44428;45.630;13.786;2022-09-13T04:53:43;101231.16;;;16.48;71.52
58658;BME280;44428;45.630;13.786;2022-09-13T04:56:09;101238.19;;;16.49;71.80
58658;BME280;44428;45.630;13.786;2022-09-13T04:58:35;101239.34;;;16.57;71.42
58658;BME280;44428;45.630;13.786;2022-09-13T05:01:05;101245.56;;;16.67;71.25
58658;BME280;44428;45.630;13.786;2022-09-13T05:03:32;101230.47;;;16.77;71.18
58658;BME280;44428;45.630;13.786;2022-09-13T05:06:06;101242.56;;;16.81;71.21
58658;BME280;44428;45.630;13.786;2022-09-13T05:08:32;101234.44;;;16.83;71.49
58658;BME280;44428;45.630;13.786;2022-09-13T05:10:58;101234.72;;;16.89;71.61
58658;BME280;44428;45.630;13.786;2022-09-13T05:13:27;101225.81;;;17.10;71.57
58658;BME280;44428;45.630;13.786;2022-09-13T05:15:55;101241.84;;;17.20;71.46
58658;BME280;44428;45.630;13.786;2022-09-13T05:18:21;101241.00;;;17.29;71.23
58658;BME280;44428;45.630;13.786;2022-09-13T05:20:47;101235.94;;;17.35;71.20
58658;BME280;44428;45.630;13.786;2022-09-13T05:23:13;101235.38;;;17.42;71.55
58658;BME280;44428;45.630;13.786;2022-09-13T05:25:38;101235.81;;;17.47;71.61
58658;BME280;44428;45.630;13.786;2022-09-13T05:28:04;101245.22;;;17.51;71.71
58658;BME280;44428;45.630;13.786;2022-09-13T05:30:30;101248.34;;;17.56;71.95
58658;BME280;44428;45.630;13.786;2022-09-13T05:32:55;101249.06;;;17.58;71.82
58658;BME280;44428;45.630;13.786;2022-09-13T05:35:22;101253.13;;;17.62;72.12
58658;BME280;44428;45.630;13.786;2022-09-13T05:37:48;101249.72;;;17.70;72.00
58658;BME280;44428;45.630;13.786;2022-09-13T05:40:14;101255.38;;;17.76;71.85
58658;BME280;44428;45.630;13.786;2022-09-13T05:42:39;101254.13;;;17.80;71.72
58658;BME280;44428;45.630;13.786;2022-09-13T05:45:05;101256.25;;;17.87;71.22
58658;BME280;44428;45.630;13.786;2022-09-13T05:47:31;101262.31;;;17.89;70.98
58658;BME280;44428;45.630;13.786;2022-09-13T05:49:57;101243.59;;;17.89;70.82
58658;BME280;44428;45.630;13.786;2022-09-13T05:52:23;101246.78;;;18.02;69.77
58658;BME280;44428;45.630;13.786;2022-09-13T05:54:49;101252.53;;;20.00;63.22
58658;BME280;44428;45.630;13.786;2022-09-13T05:57:15;101246.94;;;20.72;59.51
58658;BME280;44428;45.630;13.786;2022-09-13T05:59:40;101244.47;;;20.00;61.60
58658;BME280;44428;45.630;13.786;2022-09-13T06:02:08;101243.22;;;20.12;61.68
58658;BME280;44428;45.630;13.786;2022-09-13T06:04:34;101237.81;;;21.66;56.91
58658;BME280;44428;45.630;13.786;2022-09-13T06:07:00;101241.69;;;23.39;51.56
58658;BME280;44428;45.630;13.786;2022-09-13T06:09:26;101241.69;;;24.60;48.44
58658;BME280;44428;45.630;13.786;2022-09-13T06:11:51;101233.25;;;25.57;46.15
58658;BME280;44428;45.630;13.786;2022-09-13T06:14:17;101238.25;;;26.60;43.49
58658;BME280;44428;45.630;13.786;2022-09-13T06:16:42;101224.97;;;27.33;41.61
58658;BME280;44428;45.630;13.786;2022-09-13T06:19:08;101228.56;;;27.80;40.38
58658;BME280;44428;45.630;13.786;2022-09-13T06:21:34;101230.97;;;28.61;39.07
58658;BME280;44428;45.630;13.786;2022-09-13T06:24:00;101227.28;;;29.39;37.46
58658;BME280;44428;45.630;13.786;2022-09-13T06:26:27;101228.72;;;29.98;36.09
58658;BME280;44428;45.630;13.786;2022-09-13T06:28:54;101226.13;;;30.28;35.42
58658;BME280;44428;45.630;13.786;2022-09-13T06:31:22;101222.13;;;29.62;36.47
58658;BME280;44428;45.630;13.786;2022-09-13T06:33:57;101221.38;;;29.74;35.70
58658;BME280;44428;45.630;13.786;2022-09-13T06:36:24;101217.91;;;30.90;33.88
58658;BME280;44428;45.630;13.786;2022-09-13T06:38:50;101212.00;;;32.01;32.06
58658;BME280;44428;45.630;13.786;2022-09-13T06:41:19;101210.75;;;31.49;32.64
58658;BME280;44428;45.630;13.786;2022-09-13T06:43:45;101221.41;;;29.42;35.36
58658;BME280;44428;45.630;13.786;2022-09-13T06:46:16;101214.75;;;27.61;38.40
58658;BME280;44428;45.630;13.786;2022-09-13T06:48:44;101216.44;;;26.46;41.58
58658;BME280;44428;45.630;13.786;2022-09-13T06:51:12;101222.16;;;25.74;43.06
58658;BME280;44428;45.630;13.786;2022-09-13T06:53:39;101224.16;;;25.07;45.33
58658;BME280;44428;45.630;13.786;2022-09-13T06:56:07;101223.38;;;24.62;45.91
58658;BME280;44428;45.630;13.786;2022-09-13T06:58:34;101221.31;;;24.35;46.87
58658;BME280;44428;45.630;13.786;2022-09-13T07:01:13;101219.44;;;24.20;47.78
58658;BME280;44428;45.630;13.786;2022-09-13T07:03:51;101237.13;;;24.08;48.29
58658;BME280;44428;45.630;13.786;2022-09-13T07:06:23;101231.88;;;23.92;48.72
58658;BME280;44428;45.630;13.786;2022-09-13T07:08:50;101235.38;;;23.77;49.49
58658;BME280;44428;45.630;13.786;2022-09-13T07:11:18;101229.88;;;23.71;49.42
58658;BME280;44428;45.630;13.786;2022-09-13T07:13:55;101229.13;;;23.54;49.89
58658;BME280;44428;45.630;13.786;2022-09-13T07:16:23;101238.59;;;23.50;50.08
58658;BME280;44428;45.630;13.786;2022-09-13T07:18:57;101231.53;;;23.49;50.42
58658;BME280;44428;45.630;13.786;2022-09-13T07:21:24;101234.19;;;23.57;50.05
58658;BME280;44428;45.630;13.786;2022-09-13T07:23:51;101235.50;;;23.61;50.20
58658;BME280;44428;45.630;13.786;2022-09-13T07:26:18;101239.56;;;23.80;50.28
58658;BME280;44428;45.630;13.786;2022-09-13T07:28:46;101244.47;;;24.14;49.18
58658;BME280;44428;45.630;13.786;2022-09-13T07:31:19;101241.31;;;24.63;48.72
58658;BME280;44428;45.630;13.786;2022-09-13T07:33:46;101243.09;;;25.07;47.46
58658;BME280;44428;45.630;13.786;2022-09-13T07:36:13;101249.88;;;25.33;46.96
58658;BME280;44428;45.630;13.786;2022-09-13T07:38:41;101244.03;;;25.51;46.12
58658;BME280;44428;45.630;13.786;2022-09-13T07:41:15;101238.66;;;25.57;45.89
58658;BME280;44428;45.630;13.786;2022-09-13T07:43:41;101236.97;;;25.56;45.82
58658;BME280;44428;45.630;13.786;2022-09-13T07:46:12;101241.22;;;25.66;46.02
58658;BME280;44428;45.630;13.786;2022-09-13T07:48:39;101243.75;;;25.67;46.53
58658;BME280;44428;45.630;13.786;2022-09-13T07:51:12;101239.97;;;25.83;45.87
58658;BME280;44428;45.630;13.786;2022-09-13T07:53:39;101241.47;;;26.48;44.49
58658;BME280;44428;45.630;13.786;2022-09-13T07:56:13;101242.09;;;26.85;43.80
58658;BME280;44428;45.630;13.786;2022-09-13T07:58:41;101247.06;;;26.75;43.96
58658;BME280;44428;45.630;13.786;2022-09-13T08:01:18;101239.38;;;26.85;43.51
58658;BME280;44428;45.630;13.786;2022-09-13T08:03:50;101240.88;;;26.88;43.74
58658;BME280;44428;45.630;13.786;2022-09-13T08:06:16;101237.97;;;29.02;39.85
58658;BME280;44428;45.630;13.786;2022-09-13T08:08:42;101231.03;;;31.12;35.71
58658;BME280;44428;45.630;13.786;2022-09-13T08:11:18;101214.75;;;32.76;32.96
58658;BME280;44428;45.630;13.786;2022-09-13T08:13:45;101223.97;;;34.68;29.98
58658;BME280;44428;45.630;13.786;2022-09-13T08:16:11;101214.06;;;35.75;27.68
58658;BME280;44428;45.630;13.786;2022-09-13T08:18:37;101224.13;;;37.02;26.08
58658;BME280;44428;45.630;13.786;2022-09-13T08:21:02;101230.78;;;37.67;25.31
58658;BME280;44428;45.630;13.786;2022-09-13T08:23:28;101222.31;;;38.64;23.85
58658;BME280;44428;45.630;13.786;2022-09-13T08:25:59;101224.94;;;39.69;22.90
58658;BME280;44428;45.630;13.786;2022-09-13T08:28:26;101235.03;;;40.13;21.91
58658;BME280;44428;45.630;13.786;2022-09-13T08:30:52;101233.50;;;40.01;22.25
58658;BME280;44428;45.630;13.786;2022-09-13T08:33:17;101223.88;;;39.65;21.63
58658;BME280;44428;45.630;13.786;2022-09-13T08:35:50;101235.31;;;40.40;20.75
58658;BME280;44428;45.630;13.786;2022-09-13T08:38:17;101224.63;;;40.52;21.73
58658;BME280;44428;45.630;13.786;2022-09-13T08:40:56;101230.72;;;38.39;22.67
58658;BME280;44428;45.630;13.786;2022-09-13T08:43:39;101233.84;;;36.52;25.50
58658;BME280;44428;45.630;13.786;2022-09-13T08:48:56;101230.00;;;36.58;26.12
58658;BME280;44428;45.630;13.786;2022-09-13T08:51:43;101218.22;;;39.06;23.20
58658;BME280;44428;45.630;13.786;2022-09-13T08:54:13;101222.09;;;40.32;22.22
58658;BME280;44428;45.630;13.786;2022-09-13T09:04:49;101228.47;;;41.32;20.88
58658;BME280;44428;45.630;13.786;2022-09-13T09:07:31;101221.91;;;41.94;20.35
58658;BME280;44428;45.630;13.786;2022-09-13T09:10:03;101225.00;;;42.06;20.65
58658;BME280;44428;45.630;13.786;2022-09-13T09:12:52;101221.72;;;42.04;20.30
58658;BME280;44428;45.630;13.786;2022-09-13T09:15:29;101217.50;;;41.93;20.30
58658;BME280;44428;45.630;13.786;2022-09-13T09:18:20;101221.09;;;42.07;19.91
58658;BME280;44428;45.630;13.786;2022-09-13T09:20:58;101221.94;;;42.49;19.94
58658;BME280;44428;45.630;13.786;2022-09-13T09:23:44;101223.38;;;42.32;19.68
58658;BME280;44428;45.630;13.786;2022-09-13T09:26:21;101221.09;;;42.76;20.19
58658;BME280;44428;45.630;13.786;2022-09-13T09:28:53;101215.16;;;43.28;19.11
58658;BME280;44428;45.630;13.786;2022-09-13T09:37:09;101215.56;;;38.91;23.53
58658;BME280;44428;45.630;13.786;2022-09-13T09:39:37;101216.63;;;39.74;23.28
58658;BME280;44428;45.630;13.786;2022-09-13T09:42:10;101220.94;;;39.11;23.33
58658;BME280;44428;45.630;13.786;2022-09-13T09:44:39;101217.44;;;39.01;23.46
58658;BME280;44428;45.630;13.786;2022-09-13T09:47:22;101224.47;;;38.72;23.46
58658;BME280;44428;45.630;13.786;2022-09-13T09:50:03;101223.09;;;37.79;24.77
58658;BME280;44428;45.630;13.786;2022-09-13T09:55:29;101230.81;;;36.58;26.91
58658;BME280;44428;45.630;13.786;2022-09-13T09:58:04;101225.75;;;37.03;26.77
58658;BME280;44428;45.630;13.786;2022-09-13T10:00:34;101225.81;;;37.23;25.69
58658;BME280;44428;45.630;13.786;2022-09-13T10:03:06;101240.47;;;36.61;26.58
58658;BME280;44428;45.630;13.786;2022-09-13T10:05:34;101231.16;;;35.77;27.98
58658;BME280;44428;45.630;13.786;2022-09-13T10:08:02;101219.78;;;35.36;28.38
58658;BME280;44428;45.630;13.786;2022-09-13T10:10:53;101222.41;;;36.90;26.65
58658;BME280;44428;45.630;13.786;2022-09-13T10:13:21;101209.13;;;38.46;25.57
58658;BME280;44428;45.630;13.786;2022-09-13T10:16:39;101200.94;;;39.25;22.68
58658;BME280;44428;45.630;13.786;2022-09-13T10:18:40;101196.28;;;39.89;22.76
58658;BME280;44428;45.630;13.786;2022-09-13T10:23:35;101182.28;;;40.28;22.74
58658;BME280;44428;45.630;13.786;2022-09-13T10:29:07;101168.38;;;40.76;22.13
58658;BME280;44428;45.630;13.786;2022-09-13T10:31:39;101179.22;;;40.91;21.48
58658;BME280;44428;45.630;13.786;2022-09-13T10:34:12;101182.22;;;41.14;20.98
58658;BME280;44428;45.630;13.786;2022-09-13T10:39:20;101187.59;;;40.86;21.12
58658;BME280;44428;45.630;13.786;2022-09-13T10:42:04;101181.03;;;40.82;20.72
58658;BME280;44428;45.630;13.786;2022-09-13T10:44:43;101175.28;;;40.55;20.70
58658;BME280;44428;45.630;13.786;2022-09-13T10:47:33;101187.75;;;40.33;22.08
58658;BME280;44428;45.630;13.786;2022-09-13T10:50:24;101185.91;;;40.47;21.25
58658;BME280;44428;45.630;13.786;2022-09-13T10:52:52;101191.28;;;40.58;21.76
58658;BME280;44428;45.630;13.786;2022-09-13T10:57:45;101179.69;;;39.89;21.52
58658;BME280;44428;45.630;13.786;2022-09-13T11:00:14;101175.06;;;38.66;22.32
58658;BME280;44428;45.630;13.786;2022-09-13T11:30:02;101181.28;;;35.63;28.22
58658;BME280;44428;45.630;13.786;2022-09-13T11:41:08;101195.22;;;33.75;32.03
58658;BME280;44428;45.630;13.786;2022-09-13T11:43:54;101192.84;;;33.34;33.80
58658;BME280;44428;45.630;13.786;2022-09-13T11:57:20;101203.69;;;33.57;33.81
58658;BME280;44428;45.630;13.786;2022-09-13T12:00:00;101202.34;;;33.77;34.23
58658;BME280;44428;45.630;13.786;2022-09-13T12:05:39;101202.09;;;34.34;33.79
58658;BME280;44428;45.630;13.786;2022-09-13T12:11:03;101191.53;;;34.64;33.83
58658;BME280;44428;45.630;13.786;2022-09-13T12:13:35;101209.16;;;33.91;33.67
58658;BME280;44428;45.630;13.786;2022-09-13T12:16:07;101207.63;;;32.23;37.01
58658;BME280;44428;45.630;13.786;2022-09-13T12:18:39;101205.56;;;32.30;36.65
58658;BME280;44428;45.630;13.786;2022-09-13T12:21:13;101201.06;;;30.93;39.33
58658;BME280;44428;45.630;13.786;2022-09-13T12:23:55;101204.81;;;31.22;39.37
58658;BME280;44428;45.630;13.786;2022-09-13T12:26:38;101200.34;;;31.70;39.69
58658;BME280;44428;45.630;13.786;2022-09-13T12:29:14;101202.97;;;32.35;38.18
58658;BME280;44428;45.630;13.786;2022-09-13T12:31:42;101196.00;;;32.97;37.00
58658;BME280;44428;45.630;13.786;2022-09-13T12:34:15;101206.44;;;33.12;36.15
58658;BME280;44428;45.630;13.786;2022-09-13T12:39:23;101202.03;;;31.29;39.79
58658;BME280;44428;45.630;13.786;2022-09-13T13:00:28;101176.06;;;31.38;40.64
58658;BME280;44428;45.630;13.786;2022-09-13T13:05:40;101176.94;;;32.09;40.61
58658;BME280;44428;45.630;13.786;2022-09-13T13:08:31;101174.88;;;32.28;39.32
58658;BME280;44428;45.630;13.786;2022-09-13T13:11:01;101182.28;;;32.16;39.69
58658;BME280;44428;45.630;13.786;2022-09-13T13:13:36;101170.31;;;31.28;41.84
58658;BME280;44428;45.630;13.786;2022-09-13T13:18:59;101174.69;;;30.87;42.89
58658;BME280;44428;45.630;13.786;2022-09-13T13:21:29;101175.00;;;30.79;42.83
58658;BME280;44428;45.630;13.786;2022-09-13T13:26:55;101180.25;;;30.44;43.57
58658;BME280;44428;45.630;13.786;2022-09-13T13:29:32;101180.25;;;29.82;44.41
58658;BME280;44428;45.630;13.786;2022-09-13T13:32:05;101174.53;;;29.90;45.39
58658;BME280;44428;45.630;13.786;2022-09-13T13:34:42;101176.25;;;30.28;45.08
58658;BME280;44428;45.630;13.786;2022-09-13T13:39:36;101175.91;;;30.18;44.99
58658;BME280;44428;45.630;13.786;2022-09-13T13:59:56;101180.56;;;29.10;47.95
58658;BME280;44428;45.630;13.786;2022-09-13T14:03:07;101180.56;;;29.10;48.78
58658;BME280;44428;45.630;13.786;2022-09-13T14:05:45;101187.84;;;28.78;49.67
58658;BME280;44428;45.630;13.786;2022-09-13T14:18:58;101180.25;;;28.28;51.46
58658;BME280;44428;45.630;13.786;2022-09-13T14:21:29;101180.50;;;28.07;52.11
58658;BME280;44428;45.630;13.786;2022-09-13T14:24:29;101180.50;;;27.67;52.84
58658;BME280;44428;45.630;13.786;2022-09-13T14:26:57;101172.16;;;27.49;53.33
58658;BME280;44428;45.630;13.786;2022-09-13T14:29:24;101171.75;;;27.52;53.27
58658;BME280;44428;45.630;13.786;2022-09-13T14:31:59;101167.56;;;27.43;54.20
58658;BME280;44428;45.630;13.786;2022-09-13T14:34:32;101160.88;;;27.25;55.39
58658;BME280;44428;45.630;13.786;2022-09-13T14:37:02;101156.28;;;27.26;55.24
58658;BME280;44428;45.630;13.786;2022-09-13T14:39:28;101151.63;;;27.00;56.64
58658;BME280;44428;45.630;13.786;2022-09-13T14:42:01;101154.13;;;27.08;56.22
58658;BME280;44428;45.630;13.786;2022-09-13T14:44:27;101146.19;;;27.00;56.40
58658;BME280;44428;45.630;13.786;2022-09-13T14:47:19;101148.69;;;26.94;56.26
58658;BME280;44428;45.630;13.786;2022-09-13T14:49:48;101142.06;;;27.17;56.21
58658;BME280;44428;45.630;13.786;2022-09-13T14:52:37;101149.59;;;27.28;56.04
58658;BME280;44428;45.630;13.786;2022-09-13T14:55:13;101156.31;;;27.32;54.75
58658;BME280;44428;45.630;13.786;2022-09-13T14:57:45;101147.03;;;27.13;55.27
58658;BME280;44428;45.630;13.786;2022-09-13T15:02:39;101140.56;;;26.46;57.28
58658;BME280;44428;45.630;13.786;2022-09-13T15:05:13;101140.56;;;26.46;57.73
58658;BME280;44428;45.630;13.786;2022-09-13T15:07:42;101140.31;;;26.41;57.94
58658;BME280;44428;45.630;13.786;2022-09-13T15:10:31;101142.59;;;26.38;57.89
58658;BME280;44428;45.630;13.786;2022-09-13T15:15:41;101137.97;;;26.25;57.73
58658;BME280;44428;45.630;13.786;2022-09-13T15:20:57;101143.47;;;26.03;58.89
58658;BME280;44428;45.630;13.786;2022-09-13T15:23:49;101134.94;;;26.07;58.95
58658;BME280;44428;45.630;13.786;2022-09-13T15:28:59;101146.25;;;26.17;58.98
58658;BME280;44428;45.630;13.786;2022-09-13T15:31:29;101149.16;;;26.15;59.17
58658;BME280;44428;45.630;13.786;2022-09-13T15:34:12;101145.41;;;26.16;58.73
58658;BME280;44428;45.630;13.786;2022-09-13T15:39:25;101135.38;;;26.10;58.46
58658;BME280;44428;45.630;13.786;2022-09-13T15:41:52;101136.16;;;25.97;59.20
58658;BME280;44428;45.630;13.786;2022-09-13T15:44:18;101132.72;;;25.82;59.93
58658;BME280;44428;45.630;13.786;2022-09-13T15:46:52;101128.06;;;25.76;60.41
58658;BME280;44428;45.630;13.786;2022-09-13T15:49:23;101132.44;;;25.77;60.61
58658;BME280;44428;45.630;13.786;2022-09-13T15:51:59;101130.44;;;25.57;61.19
58658;BME280;44428;45.630;13.786;2022-09-13T15:54:32;101127.06;;;25.55;61.41
58658;BME280;44428;45.630;13.786;2022-09-13T15:56:58;101109.97;;;25.48;61.84
58658;BME280;44428;45.630;13.786;2022-09-13T15:59:24;101110.91;;;25.41;61.56
58658;BME280;44428;45.630;13.786;2022-09-13T16:01:51;101099.41;;;25.32;62.07
58658;BME280;44428;45.630;13.786;2022-09-13T16:04:17;101109.34;;;25.25;61.47
58658;BME280;44428;45.630;13.786;2022-09-13T16:06:43;101112.16;;;25.17;61.31
58658;BME280;44428;45.630;13.786;2022-09-13T16:09:27;101108.16;;;25.12;61.78
58658;BME280;44428;45.630;13.786;2022-09-13T16:11:53;101102.59;;;24.99;62.36
58658;BME280;44428;45.630;13.786;2022-09-13T16:14:19;101109.06;;;24.98;62.61
58658;BME280;44428;45.630;13.786;2022-09-13T16:16:45;101107.22;;;24.84;62.69
58658;BME280;44428;45.630;13.786;2022-09-13T16:19:14;101105.06;;;24.73;63.13
58658;BME280;44428;45.630;13.786;2022-09-13T16:21:40;101109.53;;;24.65;63.58
58658;BME280;44428;45.630;13.786;2022-09-13T16:24:06;101108.19;;;24.55;63.55
58658;BME280;44428;45.630;13.786;2022-09-13T16:26:32;101104.75;;;24.46;64.12
58658;BME280;44428;45.630;13.786;2022-09-13T16:28:58;101104.91;;;24.30;65.30
58658;BME280;44428;45.630;13.786;2022-09-13T16:31:24;101098.59;;;24.22;65.66
58658;BME280;44428;45.630;13.786;2022-09-13T16:33:50;101095.22;;;24.20;65.99
58658;BME280;44428;45.630;13.786;2022-09-13T16:36:16;101106.78;;;24.14;65.98
58658;BME280;44428;45.630;13.786;2022-09-13T16:38:42;101101.13;;;24.09;65.89